createdAt,value
2023-05-22T00:00:23.604Z,8.35
2023-05-22T00:02:52.593Z,8.88
2023-05-22T00:05:21.220Z,8.10
2023-05-22T00:07:50.341Z,8.30
2023-05-22T00:10:18.017Z,8.07
2023-05-22T00:12:45.664Z,7.90
2023-05-22T00:15:13.310Z,8.30
2023-05-22T00:17:41.058Z,7.20
2023-05-22T00:20:11.025Z,8.07
2023-05-22T00:22:38.819Z,7.75
2023-05-22T00:25:08.552Z,7.82
2023-05-22T00:27:36.248Z,7.95
2023-05-22T00:30:04.008Z,8.57
2023-05-22T00:32:31.700Z,7.80
2023-05-22T00:34:59.323Z,8.02
2023-05-22T00:37:27.318Z,7.53
2023-05-22T00:39:54.994Z,7.13
2023-05-22T00:42:24.016Z,7.57
2023-05-22T00:44:51.751Z,6.88
2023-05-22T00:47:19.448Z,7.65
2023-05-22T00:49:47.336Z,7.68
2023-05-22T00:52:15.415Z,7.38
2023-05-22T00:54:43.355Z,7.93
2023-05-22T00:57:11.485Z,7.50
2023-05-22T00:59:40.514Z,7.80
2023-05-22T01:02:08.347Z,7.55
2023-05-22T01:04:37.262Z,7.65
2023-05-22T01:07:06.197Z,7.67
2023-05-22T01:09:33.804Z,7.00
2023-05-22T01:12:07.360Z,7.25
2023-05-22T01:14:37.770Z,6.72
2023-05-22T01:17:12.412Z,7.25
2023-05-22T01:19:50.767Z,7.10
2023-05-22T01:22:23.550Z,6.72
2023-05-22T01:25:09.412Z,7.40
2023-05-22T01:27:43.923Z,7.13
2023-05-22T01:30:20.664Z,7.32
2023-05-22T01:32:50.787Z,6.57
2023-05-22T01:35:19.753Z,6.85
2023-05-22T01:37:47.852Z,7.00
2023-05-22T01:40:15.529Z,7.32
2023-05-22T01:42:43.296Z,7.20
2023-05-22T01:45:12.261Z,7.00
2023-05-22T01:47:40.000Z,7.00
2023-05-22T01:50:09.586Z,6.70
2023-05-22T01:52:41.097Z,6.93
2023-05-22T01:55:13.511Z,6.90
2023-05-22T01:57:44.692Z,6.67
2023-05-22T02:00:14.409Z,6.70
2023-05-22T02:02:44.028Z,7.00
2023-05-22T02:05:13.744Z,6.70
2023-05-22T02:07:43.016Z,6.45
2023-05-22T02:10:11.348Z,7.17
2023-05-22T02:12:39.157Z,6.85
2023-05-22T02:15:07.652Z,6.38
2023-05-22T02:17:40.370Z,6.63
2023-05-22T02:20:14.557Z,7.13
2023-05-22T02:22:44.727Z,6.43
2023-05-22T02:25:14.438Z,6.57
2023-05-22T02:27:42.910Z,6.45
2023-05-22T02:30:10.877Z,6.65
2023-05-22T02:32:38.587Z,6.88
2023-05-22T02:35:06.773Z,6.50
2023-05-22T02:37:34.635Z,6.97
2023-05-22T02:40:06.154Z,7.63
2023-05-22T02:42:34.083Z,6.90
2023-05-22T02:45:01.781Z,6.97
2023-05-22T02:47:29.525Z,6.83
2023-05-22T02:49:58.006Z,6.93
2023-05-22T02:52:25.934Z,6.82
2023-05-22T02:54:53.552Z,6.60
2023-05-22T02:57:22.598Z,6.55
2023-05-22T02:59:51.115Z,6.90
2023-05-22T03:02:19.905Z,6.28
2023-05-22T03:04:47.681Z,6.88
2023-05-22T03:07:15.330Z,6.00
2023-05-22T03:09:42.941Z,6.18
2023-05-22T03:12:11.091Z,6.63
2023-05-22T03:14:40.118Z,6.47
2023-05-22T03:17:07.766Z,5.97
2023-05-22T03:19:35.440Z,6.07
2023-05-22T03:22:03.176Z,6.30
2023-05-22T03:24:31.442Z,5.13
2023-05-22T03:26:59.924Z,6.07
2023-05-22T03:29:27.556Z,5.57
2023-05-22T03:31:58.052Z,5.70
2023-05-22T03:34:27.292Z,6.07
2023-05-22T03:36:55.011Z,5.80
2023-05-22T03:39:22.633Z,5.80
2023-05-22T03:41:50.294Z,5.82
2023-05-22T03:44:17.892Z,5.93
2023-05-22T03:46:45.517Z,5.63
2023-05-22T03:49:14.462Z,5.32
2023-05-22T03:51:42.097Z,5.10
2023-05-22T03:54:09.730Z,5.10
2023-05-22T03:56:37.396Z,5.70
2023-05-22T03:59:05.059Z,5.13
2023-05-22T04:01:32.679Z,5.90
2023-05-22T04:04:00.969Z,5.85
2023-05-22T04:06:32.993Z,5.38
2023-05-22T04:09:01.732Z,5.40
2023-05-22T04:11:30.467Z,5.10
2023-05-22T04:13:58.182Z,5.53
2023-05-22T04:16:25.843Z,5.10
2023-05-22T04:18:53.499Z,5.43
2023-05-22T04:21:21.153Z,5.50
2023-05-22T04:23:50.150Z,5.37
2023-05-22T04:26:18.089Z,5.30
2023-05-22T04:28:46.357Z,5.70
2023-05-22T04:31:14.503Z,5.40
2023-05-22T04:33:42.142Z,5.45
2023-05-22T04:36:12.340Z,5.13
2023-05-22T04:38:41.385Z,5.00
2023-05-22T04:41:10.442Z,4.88
2023-05-22T04:43:38.852Z,5.00
2023-05-22T04:46:06.508Z,4.65
2023-05-22T04:48:35.510Z,4.40
2023-05-22T04:51:03.524Z,4.47
2023-05-22T04:53:31.426Z,4.90
2023-05-22T04:55:59.089Z,4.53
2023-05-22T04:58:28.471Z,4.80
2023-05-22T05:00:57.808Z,4.80
2023-05-22T05:03:26.511Z,4.53
2023-05-22T05:05:54.171Z,4.85
2023-05-22T05:08:21.767Z,4.78
2023-05-22T05:10:49.375Z,5.03
2023-05-22T05:13:17.020Z,5.00
2023-05-22T05:15:46.044Z,4.43
2023-05-22T05:18:13.673Z,4.53
2023-05-22T05:20:41.465Z,5.13
2023-05-22T05:23:10.339Z,5.05
2023-05-22T05:25:38.761Z,4.57
2023-05-22T05:28:10.763Z,4.82
2023-05-22T05:30:38.976Z,5.07
2023-05-22T05:33:08.171Z,4.97
2023-05-22T05:35:35.989Z,4.90
2023-05-22T05:38:03.961Z,5.07
2023-05-22T05:40:31.595Z,5.00
2023-05-22T05:42:59.261Z,4.93
2023-05-22T05:45:27.157Z,4.80
2023-05-22T05:47:54.979Z,4.85
2023-05-22T05:50:24.057Z,4.80
2023-05-22T05:52:51.746Z,4.70
2023-05-22T05:55:19.652Z,4.63
2023-05-22T05:57:47.281Z,4.70
2023-05-22T06:00:15.244Z,4.20
2023-05-22T06:02:43.783Z,4.70
2023-05-22T06:05:11.600Z,4.50
2023-05-22T06:07:40.924Z,4.70
2023-05-22T06:10:09.501Z,4.65
2023-05-22T06:12:37.404Z,4.78
2023-05-22T06:15:05.696Z,4.60
2023-05-22T06:17:33.445Z,4.88
2023-05-22T06:20:01.323Z,4.95
2023-05-22T06:22:29.248Z,4.65
2023-05-22T06:24:58.289Z,4.35
2023-05-22T06:27:27.462Z,5.00
2023-05-22T06:29:56.523Z,4.50
2023-05-22T06:32:24.486Z,4.45
2023-05-22T06:34:52.226Z,4.90
2023-05-22T06:37:19.927Z,4.35
2023-05-22T06:39:47.655Z,4.50
2023-05-22T06:42:16.738Z,4.60
2023-05-22T06:44:44.482Z,4.70
2023-05-22T06:47:13.033Z,4.95
2023-05-22T06:49:40.752Z,4.70
2023-05-22T06:52:08.435Z,4.87
2023-05-22T06:54:36.099Z,5.35
2023-05-22T06:57:04.508Z,4.57
2023-05-22T06:59:33.653Z,4.72
2023-05-22T07:02:01.336Z,4.60
2023-05-22T07:04:28.986Z,5.00
2023-05-22T07:06:56.750Z,4.28
2023-05-22T07:09:24.407Z,4.75
2023-05-22T07:11:52.095Z,4.88
2023-05-22T07:14:19.743Z,4.85
2023-05-22T07:16:48.956Z,5.00
2023-05-22T07:19:16.844Z,4.90
2023-05-22T07:21:44.451Z,5.13
2023-05-22T07:24:12.101Z,4.68
2023-05-22T07:26:39.859Z,4.82
2023-05-22T07:29:07.852Z,4.93
2023-05-22T07:31:35.517Z,4.78
2023-05-22T07:34:04.624Z,4.80
2023-05-22T07:36:34.788Z,4.85
2023-05-22T07:39:02.548Z,4.82
2023-05-22T07:41:30.244Z,5.07
2023-05-22T07:43:57.953Z,4.60
2023-05-22T07:46:25.603Z,5.00
2023-05-22T07:48:53.234Z,5.15
2023-05-22T07:51:22.274Z,5.38
2023-05-22T07:53:49.933Z,4.93
2023-05-22T07:56:17.617Z,4.88
2023-05-22T07:58:48.064Z,4.70
2023-05-22T08:01:16.661Z,4.82
2023-05-22T08:03:44.722Z,5.38
2023-05-22T08:06:12.619Z,5.73
2023-05-22T08:08:41.833Z,5.20
2023-05-22T08:11:09.773Z,5.45
2023-05-22T08:13:38.800Z,5.03
2023-05-22T08:16:07.257Z,5.45
2023-05-22T08:18:35.212Z,5.70
2023-05-22T08:21:02.962Z,5.18
2023-05-22T08:23:30.960Z,5.20
2023-05-22T08:26:00.276Z,5.75
2023-05-22T08:28:27.987Z,5.00
2023-05-22T08:30:55.774Z,5.87
2023-05-22T08:33:23.525Z,5.45
2023-05-22T08:35:51.231Z,5.05
2023-05-22T08:38:18.912Z,6.00
2023-05-22T08:40:48.872Z,6.03
2023-05-22T08:43:18.195Z,5.77
2023-05-22T08:45:46.033Z,5.88
2023-05-22T08:48:14.599Z,5.80
2023-05-22T08:50:42.802Z,5.45
2023-05-22T08:53:12.837Z,6.13
2023-05-22T08:55:40.631Z,6.53
2023-05-22T08:58:09.564Z,6.15
2023-05-22T09:00:39.029Z,5.68
2023-05-22T09:03:10.136Z,5.90
2023-05-22T09:05:39.287Z,6.35
2023-05-22T09:08:19.194Z,5.60
2023-05-22T09:10:48.500Z,5.95
2023-05-22T09:13:25.468Z,6.10
2023-05-22T09:15:54.833Z,6.35
2023-05-22T09:18:25.253Z,6.25
2023-05-22T09:20:52.847Z,6.50
2023-05-22T09:23:22.242Z,6.03
2023-05-22T09:25:49.991Z,6.20
2023-05-22T09:28:17.653Z,5.80
2023-05-22T09:30:49.262Z,6.30
2023-05-22T09:33:18.387Z,5.77
2023-05-22T09:35:47.279Z,6.22
2023-05-22T09:38:15.351Z,6.00
2023-05-22T09:40:43.279Z,6.25
2023-05-22T09:43:11.326Z,6.35
2023-05-22T09:45:39.613Z,5.73
2023-05-22T09:48:08.092Z,5.77
2023-05-22T09:50:38.121Z,6.25
2023-05-22T09:53:06.198Z,6.03
2023-05-22T09:55:34.812Z,6.13
2023-05-22T09:58:04.506Z,6.40
2023-05-22T10:00:34.332Z,6.20
2023-05-22T10:03:05.285Z,6.20
2023-05-22T10:05:34.041Z,5.75
2023-05-22T10:08:08.851Z,6.45
2023-05-22T10:10:36.982Z,6.63
2023-05-22T10:13:05.237Z,5.90
2023-05-22T10:15:33.282Z,5.95
2023-05-22T10:18:01.540Z,6.03
2023-05-22T10:20:29.872Z,5.82
2023-05-22T10:22:57.667Z,5.83
2023-05-22T10:25:26.989Z,6.30
2023-05-22T10:27:54.950Z,6.50
2023-05-22T10:30:25.570Z,6.20
2023-05-22T10:32:57.565Z,5.72
2023-05-22T10:35:29.489Z,5.65
2023-05-22T10:38:03.105Z,5.68
2023-05-22T10:40:33.703Z,5.93
2023-05-22T10:43:02.163Z,6.07
2023-05-22T10:45:30.340Z,5.97
2023-05-22T10:48:05.305Z,6.25
2023-05-22T10:50:33.239Z,5.97
2023-05-22T10:53:21.085Z,6.50
2023-05-22T10:55:50.557Z,5.60
2023-05-22T10:58:18.343Z,5.60
2023-05-22T11:00:46.167Z,5.85
2023-05-22T11:03:18.443Z,4.82
2023-05-22T11:05:53.349Z,5.25
2023-05-22T11:08:47.921Z,5.40
2023-05-22T11:11:16.985Z,5.20
2023-05-22T11:13:44.721Z,5.10
2023-05-22T11:16:12.567Z,5.40
2023-05-22T11:18:40.485Z,5.22
2023-05-22T11:21:11.249Z,6.15
2023-05-22T11:23:39.073Z,6.10
2023-05-22T11:26:22.418Z,5.00
2023-05-22T11:28:50.569Z,5.75
2023-05-22T11:31:18.815Z,5.28
2023-05-22T11:33:47.288Z,5.43
2023-05-22T11:36:15.136Z,5.10
2023-05-22T11:38:43.268Z,4.70
2023-05-22T11:41:11.392Z,5.38
2023-05-22T11:43:41.532Z,4.55
2023-05-22T11:46:10.561Z,4.97
2023-05-22T11:48:41.167Z,5.17
2023-05-22T11:51:09.275Z,4.60
2023-05-22T11:53:37.560Z,5.05
2023-05-22T11:56:05.807Z,4.90
2023-05-22T11:58:34.067Z,5.03
2023-05-22T12:01:03.837Z,4.77
2023-05-22T12:03:31.825Z,4.47
2023-05-22T12:05:59.819Z,4.53
2023-05-22T12:08:27.558Z,4.78
2023-05-22T12:10:55.663Z,4.60
2023-05-22T12:13:27.519Z,4.70
2023-05-22T12:15:56.402Z,4.55
2023-05-22T12:18:25.523Z,4.55
2023-05-22T12:20:54.389Z,4.65
2023-05-22T12:23:22.804Z,4.40
2023-05-22T12:25:57.247Z,4.73
2023-05-22T12:28:25.002Z,5.40
2023-05-22T12:30:53.881Z,4.40
2023-05-22T12:33:21.782Z,4.22
2023-05-22T12:35:53.069Z,4.10
2023-05-22T12:38:22.158Z,4.10
2023-05-22T12:40:50.255Z,4.30
2023-05-22T12:43:18.038Z,4.05
2023-05-22T12:45:46.146Z,4.40
2023-05-22T12:48:13.837Z,4.60
2023-05-22T12:50:41.922Z,4.47
2023-05-22T12:53:11.202Z,4.90
2023-05-22T12:55:39.356Z,4.25
2023-05-22T12:58:07.208Z,4.25
2023-05-22T13:00:35.041Z,4.20
2023-05-22T13:03:03.164Z,4.10
2023-05-22T13:05:31.091Z,4.47
2023-05-22T13:07:58.882Z,4.18
2023-05-22T13:10:27.942Z,4.45
2023-05-22T13:12:55.978Z,4.22
2023-05-22T13:15:23.775Z,4.37
2023-05-22T13:17:51.631Z,4.20
2023-05-22T13:20:19.538Z,4.10
2023-05-22T13:22:47.246Z,3.70
2023-05-22T13:25:15.101Z,4.22
2023-05-22T13:27:44.284Z,3.70
2023-05-22T13:30:12.278Z,3.80
2023-05-22T13:32:40.163Z,3.83
2023-05-22T13:35:08.135Z,4.10
2023-05-22T13:37:38.546Z,4.22
2023-05-22T13:40:07.079Z,3.80
2023-05-22T13:42:37.807Z,3.92
2023-05-22T13:45:07.529Z,4.10
2023-05-22T13:47:35.698Z,4.03
2023-05-22T13:50:03.449Z,4.10
2023-05-22T13:52:31.121Z,4.03
2023-05-22T13:54:58.835Z,3.88
2023-05-22T13:57:26.544Z,3.90
2023-05-22T13:59:54.266Z,4.30
2023-05-22T14:02:23.413Z,3.92
2023-05-22T14:04:52.011Z,4.57
2023-05-22T14:07:19.774Z,4.18
2023-05-22T14:09:47.482Z,3.60
2023-05-22T14:12:15.226Z,4.10
2023-05-22T14:14:42.917Z,3.83
2023-05-22T14:17:10.775Z,3.80
2023-05-22T14:19:40.660Z,3.80
2023-05-22T14:22:08.338Z,3.60
2023-05-22T14:24:36.189Z,3.88
2023-05-22T14:27:03.909Z,4.05
2023-05-22T14:29:32.492Z,3.50
2023-05-22T14:32:03.699Z,3.65
2023-05-22T14:34:31.607Z,3.88
2023-05-22T14:37:00.702Z,3.90
2023-05-22T14:39:28.425Z,4.05
2023-05-22T14:41:56.426Z,3.57
2023-05-22T14:44:24.214Z,3.40
2023-05-22T14:46:53.517Z,3.60
2023-05-22T14:49:21.467Z,3.63
2023-05-22T14:51:49.387Z,3.50
2023-05-22T14:54:19.291Z,3.40
2023-05-22T14:56:47.417Z,3.42
2023-05-22T14:59:15.098Z,3.20
2023-05-22T15:01:42.772Z,3.30
2023-05-22T15:04:10.723Z,3.70
2023-05-22T15:06:38.876Z,3.30
2023-05-22T15:09:06.600Z,3.80
2023-05-22T15:11:35.599Z,3.58
2023-05-22T15:14:03.283Z,3.83
2023-05-22T15:16:30.975Z,3.35
2023-05-22T15:18:58.715Z,3.27
2023-05-22T15:21:26.663Z,3.38
2023-05-22T15:23:54.302Z,3.35
2023-05-22T15:26:22.440Z,3.30
2023-05-22T15:28:51.438Z,3.33
2023-05-22T15:31:21.595Z,3.37
2023-05-22T15:33:49.203Z,3.42
2023-05-22T15:36:16.801Z,3.70
2023-05-22T15:38:44.477Z,3.60
2023-05-22T15:41:12.072Z,4.00
2023-05-22T15:43:39.723Z,3.20
2023-05-22T15:46:10.497Z,2.95
2023-05-22T15:48:38.236Z,2.83
2023-05-22T15:51:06.789Z,3.50
2023-05-22T15:53:34.497Z,3.33
2023-05-22T15:56:02.086Z,3.17
2023-05-22T15:58:30.200Z,3.15
2023-05-22T16:00:58.122Z,3.15
2023-05-22T16:03:27.343Z,3.42
2023-05-22T16:05:55.074Z,2.97
2023-05-22T16:08:22.704Z,3.20
2023-05-22T16:10:50.427Z,3.00
2023-05-22T16:13:18.187Z,3.50
2023-05-22T16:15:45.913Z,3.05
2023-05-22T16:18:13.629Z,3.60
2023-05-22T16:20:42.639Z,3.47
2023-05-22T16:23:10.328Z,3.50
2023-05-22T16:25:38.208Z,3.63
2023-05-22T16:28:06.617Z,3.25
2023-05-22T16:30:34.276Z,3.30
2023-05-22T16:33:01.897Z,2.87
2023-05-22T16:35:29.639Z,3.10
2023-05-22T16:37:58.869Z,3.63
2023-05-22T16:40:26.476Z,3.10
2023-05-22T16:42:54.093Z,2.90
2023-05-22T16:45:22.693Z,3.20
2023-05-22T16:47:50.450Z,3.25
2023-05-22T16:50:18.275Z,3.53
2023-05-22T16:52:45.936Z,3.22
2023-05-22T16:55:15.023Z,3.30
2023-05-22T16:57:43.297Z,3.10
2023-05-22T17:00:11.963Z,3.20
2023-05-22T17:02:39.878Z,3.05
2023-05-22T17:05:08.164Z,3.20
2023-05-22T17:07:35.851Z,3.63
2023-05-22T17:10:03.512Z,3.93
2023-05-22T17:12:32.537Z,3.85
2023-05-22T17:15:00.166Z,3.30
2023-05-22T17:17:27.799Z,3.35
2023-05-22T17:19:55.540Z,3.20
2023-05-22T17:22:26.709Z,2.90
2023-05-22T17:24:54.424Z,3.35
2023-05-22T17:27:34.794Z,3.17
2023-05-22T17:30:04.738Z,3.40
2023-05-22T17:32:32.546Z,3.20
2023-05-22T17:35:00.361Z,3.47
2023-05-22T17:37:27.976Z,3.10
2023-05-22T17:39:55.609Z,3.33
2023-05-22T17:42:23.230Z,3.58
2023-05-22T17:44:50.911Z,3.50
2023-05-22T17:47:20.012Z,3.40
2023-05-22T17:49:47.677Z,3.80
2023-05-22T17:52:15.391Z,3.40
2023-05-22T17:54:43.079Z,3.70
2023-05-22T17:57:11.163Z,3.20
2023-05-22T17:59:40.410Z,4.00
2023-05-22T18:02:09.006Z,3.60
2023-05-22T18:04:38.382Z,3.60
2023-05-22T18:07:06.410Z,3.63
2023-05-22T18:09:34.214Z,3.90
2023-05-22T18:12:03.623Z,3.57
2023-05-22T18:14:31.427Z,3.60
2023-05-22T18:16:59.358Z,3.63
2023-05-22T18:19:27.140Z,3.47
2023-05-22T18:21:56.498Z,3.70
2023-05-22T18:24:25.294Z,2.97
2023-05-22T18:26:54.715Z,3.33
2023-05-22T18:29:22.543Z,3.40
2023-05-22T18:31:50.304Z,3.13
2023-05-22T18:34:18.005Z,2.95
2023-05-22T18:36:46.170Z,3.10
2023-05-22T18:39:15.272Z,3.38
2023-05-22T18:41:42.980Z,3.58
2023-05-22T18:44:10.693Z,3.30
2023-05-22T18:46:38.418Z,3.38
2023-05-22T18:49:06.196Z,3.90
2023-05-22T18:51:33.942Z,3.40
2023-05-22T18:54:01.972Z,3.90
2023-05-22T18:56:31.046Z,4.03
2023-05-22T18:58:58.849Z,4.00
2023-05-22T19:01:26.727Z,3.90
2023-05-22T19:03:54.520Z,3.63
2023-05-22T19:06:23.372Z,3.90
2023-05-22T19:08:51.306Z,3.60
2023-05-22T19:11:19.261Z,3.50
2023-05-22T19:13:48.408Z,3.70
2023-05-22T19:16:16.191Z,3.92
2023-05-22T19:18:43.983Z,3.75
2023-05-22T19:21:11.778Z,4.18
2023-05-22T19:23:39.882Z,3.70
2023-05-22T19:26:08.163Z,4.10
2023-05-22T19:28:35.868Z,3.83
2023-05-22T19:31:05.057Z,4.22
2023-05-22T19:33:32.889Z,4.13
2023-05-22T19:36:02.069Z,4.30
2023-05-22T19:38:31.130Z,4.30
2023-05-22T19:40:59.029Z,3.92
2023-05-22T19:43:26.943Z,4.50
2023-05-22T19:45:55.600Z,4.10
2023-05-22T19:48:25.757Z,4.38
2023-05-22T19:50:53.499Z,4.10
2023-05-22T19:53:21.383Z,4.53
2023-05-22T19:55:49.191Z,4.60
2023-05-22T19:58:17.100Z,4.43
2023-05-22T20:00:46.703Z,4.68
2023-05-22T20:03:14.480Z,4.83
2023-05-22T20:05:43.652Z,4.53
2023-05-22T20:08:11.377Z,4.90
2023-05-22T20:10:39.197Z,5.05
2023-05-22T20:13:07.215Z,4.97
2023-05-22T20:15:35.559Z,5.30
2023-05-22T20:18:03.917Z,4.80
2023-05-22T20:20:31.627Z,5.05
2023-05-22T20:23:00.687Z,5.07
2023-05-22T20:25:28.352Z,4.97
2023-05-22T20:27:56.011Z,5.00
2023-05-22T20:30:23.657Z,5.20
2023-05-22T20:32:51.988Z,4.97
2023-05-22T20:35:20.246Z,4.63
2023-05-22T20:37:48.137Z,4.80
2023-05-22T20:40:17.524Z,5.10
2023-05-22T20:42:46.159Z,4.90
2023-05-22T20:45:15.988Z,5.43
2023-05-22T20:47:44.143Z,4.95
2023-05-22T20:50:12.260Z,4.75
2023-05-22T20:52:39.994Z,4.50
2023-05-22T20:55:07.912Z,3.85
2023-05-22T20:57:36.955Z,3.88
2023-05-22T21:00:06.126Z,4.20
2023-05-22T21:02:33.961Z,4.20
2023-05-22T21:05:01.632Z,4.53
2023-05-22T21:07:29.249Z,4.32
2023-05-22T21:09:57.011Z,4.40
2023-05-22T21:12:24.726Z,4.53
2023-05-22T21:14:53.895Z,5.38
2023-05-22T21:17:21.603Z,4.70
2023-05-22T21:19:49.314Z,4.68
2023-05-22T21:22:17.143Z,4.63
2023-05-22T21:24:44.857Z,5.20
2023-05-22T21:27:12.523Z,4.85
2023-05-22T21:29:40.147Z,4.80
2023-05-22T21:32:09.498Z,5.30
2023-05-22T21:34:37.252Z,4.68
2023-05-22T21:37:05.064Z,4.63
2023-05-22T21:39:32.732Z,4.60
2023-05-22T21:42:00.416Z,5.20
2023-05-22T21:44:28.097Z,5.50
2023-05-22T21:46:55.995Z,4.90
2023-05-22T21:49:25.129Z,5.18
2023-05-22T21:51:52.736Z,4.97
2023-05-22T21:54:20.435Z,5.50
2023-05-22T21:56:48.134Z,5.28
2023-05-22T21:59:15.853Z,5.07
2023-05-22T22:01:43.946Z,4.90
2023-05-22T22:04:11.856Z,5.10
2023-05-22T22:06:41.148Z,4.73
2023-05-22T22:09:09.248Z,4.90
2023-05-22T22:11:37.400Z,4.78
2023-05-22T22:14:05.229Z,5.40
2023-05-22T22:16:35.999Z,5.70
2023-05-22T22:19:03.877Z,5.33
2023-05-22T22:21:33.384Z,5.28
2023-05-22T22:24:02.425Z,5.38
2023-05-22T22:26:31.123Z,5.45
2023-05-22T22:28:58.931Z,5.53
2023-05-22T22:31:26.921Z,5.90
2023-05-22T22:33:54.586Z,5.60
2023-05-22T22:36:22.860Z,5.50
2023-05-22T22:38:50.534Z,5.72
2023-05-22T22:41:19.522Z,5.82
2023-05-22T22:43:47.246Z,5.73
2023-05-22T22:46:14.930Z,6.05
2023-05-22T22:48:42.843Z,5.60
2023-05-22T22:51:10.585Z,5.82
2023-05-22T22:53:38.456Z,6.00
2023-05-22T22:56:06.234Z,5.70
2023-05-22T22:58:36.534Z,6.70
2023-05-22T23:01:05.232Z,6.63
2023-05-22T23:03:33.114Z,6.40
2023-05-22T23:06:00.867Z,5.97
2023-05-22T23:08:28.510Z,6.47
2023-05-22T23:10:56.160Z,6.50
2023-05-22T23:13:24.102Z,6.43
2023-05-22T23:15:53.411Z,5.72
2023-05-22T23:18:22.303Z,5.55
2023-05-22T23:20:50.192Z,6.53
2023-05-22T23:23:17.965Z,6.05
2023-05-22T23:25:45.718Z,6.50
2023-05-22T23:28:13.332Z,6.00
2023-05-22T23:30:40.991Z,6.03
2023-05-22T23:33:10.327Z,5.83
2023-05-22T23:35:38.154Z,6.28
2023-05-22T23:38:05.916Z,6.10
2023-05-22T23:40:33.644Z,6.63
2023-05-22T23:43:01.497Z,6.18
2023-05-22T23:45:29.157Z,6.27
2023-05-22T23:47:56.872Z,6.28
2023-05-22T23:50:25.966Z,6.22
2023-05-22T23:52:54.079Z,5.82
2023-05-22T23:55:21.924Z,6.60
2023-05-22T23:57:50.056Z,6.53
